Time;durP1;ratioP1;P1;durP2;ratioP2;P2;SDS_P1;SDS_P2;PMS_P1;PMS_P2;Temp;Humidity;BMP_temperature;BMP_pressure;BME280_temperature;BME280_humidity;BME280_pressure;Samples;Min_cycle;Max_cycle;Signal;HPM_P1;HPM_P2
2024/02/08 00:00:36;;;;;;;;;10.33;9.00;;;;;;;;5081137;27;45340;-79
2024/02/08 00:03:07;;;;;;;;;6.33;6.33;;;;;;;;5079313;28;47190;-82
2024/02/08 00:05:32;;;;;;;;;7.33;7.33;;;;;;;;5079294;28;45255;-81
2024/02/08 00:07:58;;;;;;;;;8.00;7.00;;;;;;;;5079642;28;45430;-79
2024/02/08 00:10:23;;;;;;;;;7.33;6.33;;;;;;;;5080607;28;45244;-80
2024/02/08 00:12:49;;;;;;;;;7.33;7.00;;;;;;;;5080548;27;45975;-80
2024/02/08 00:15:15;;;;;;;;;6.67;6.67;;;;;;;;5080556;27;45318;-79
2024/02/08 00:17:41;;;;;;;;;6.00;6.00;;;;;;;;5080481;27;45310;-80
2024/02/08 00:20:06;;;;;;;;;5.67;5.67;;;;;;;;5079882;27;45360;-80
2024/02/08 00:22:31;;;;;;;;;5.67;5.67;;;;;;;;5080542;27;45365;-80
2024/02/08 00:24:56;;;;;;;;;7.33;5.33;;;;;;;;5078694;28;45388;-79
2024/02/08 00:27:22;;;;;;;;;5.00;5.00;;;;;;;;5080858;27;45357;-79
2024/02/08 00:29:47;;;;;;;;;5.67;5.67;;;;;;;;5078907;28;47082;-79
2024/02/08 00:32:12;;;;;;;;;3.00;3.00;;;;;;;;5078825;28;46979;-80
2024/02/08 00:34:40;;;;;;;;;4.00;4.00;;;;;;;;5079931;28;45341;-80
2024/02/08 00:37:08;;;;;;;;;3.67;3.67;;;;;;;;5079692;28;45266;-79
2024/02/08 00:39:39;;;;;;;;;6.00;4.67;;;;;;;;5079716;27;45230;-79
2024/02/08 00:42:04;;;;;;;;;3.00;3.00;;;;;;;;5079708;27;45372;-79
2024/02/08 00:44:30;;;;;;;;;4.00;4.00;;;;;;;;5079957;27;45258;-79
2024/02/08 00:46:55;;;;;;;;;7.00;6.33;;;;;;;;5080263;27;45392;-79
2024/02/08 00:49:23;;;;;;;;;5.67;5.67;;;;;;;;5079783;27;45301;-79
2024/02/08 00:51:49;;;;;;;;;5.00;5.00;;;;;;;;5062941;27;45413;-81
2024/02/08 00:54:14;;;;;;;;;7.00;6.00;;;;;;;;5059624;28;45267;-79
2024/02/08 00:56:41;;;;;;;;;3.33;3.33;;;;;;;;5059769;28;45291;-81
2024/02/08 00:59:07;;;;;;;;;4.00;4.00;;;;;;;;5078150;28;47245;-79
2024/02/08 01:01:32;;;;;;;;;4.00;4.00;;;;;;;;5079826;27;45373;-79
2024/02/08 01:03:57;;;;;;;;;5.00;5.00;;;;;;;;5078135;28;45489;-79
2024/02/08 01:06:22;;;;;;;;;5.33;5.00;;;;;;;;5079568;27;45369;-80
2024/02/08 01:08:47;;;;;;;;;3.33;3.33;;;;;;;;5078092;28;45969;-79
2024/02/08 01:11:12;;;;;;;;;5.00;5.00;;;;;;;;5079418;27;46489;-79
2024/02/08 01:13:38;;;;;;;;;4.00;4.00;;;;;;;;5079202;27;45391;-80
2024/02/08 01:16:03;;;;;;;;;4.67;3.67;;;;;;;;5078325;28;45475;-80
2024/02/08 01:18:29;;;;;;;;;4.00;3.67;;;;;;;;5079322;27;45534;-79
2024/02/08 01:20:54;;;;;;;;;4.00;4.00;;;;;;;;5079226;28;45356;-79
2024/02/08 01:23:22;;;;;;;;;5.00;5.00;;;;;;;;5059927;28;45307;-78
2024/02/08 01:25:47;;;;;;;;;3.33;3.00;;;;;;;;5058982;28;45270;-79
2024/02/08 01:28:13;;;;;;;;;4.00;4.00;;;;;;;;5057989;28;46396;-78
2024/02/08 01:30:41;;;;;;;;;5.33;5.00;;;;;;;;5062619;28;46149;-79
2024/02/08 01:33:06;;;;;;;;;4.00;4.00;;;;;;;;5061502;28;45354;-79
2024/02/08 01:35:32;;;;;;;;;5.00;4.00;;;;;;;;5060593;28;45369;-78
2024/02/08 01:37:59;;;;;;;;;5.00;4.67;;;;;;;;5061057;28;46385;-82
2024/02/08 01:40:24;;;;;;;;;3.00;3.00;;;;;;;;5062562;28;45377;-79
2024/02/08 01:42:56;;;;;;;;;3.00;3.00;;;;;;;;5061038;28;45912;-79
2024/02/08 01:45:37;;;;;;;;;4.00;4.00;;;;;;;;5062748;28;45459;-79
2024/02/08 01:48:05;;;;;;;;;2.00;2.00;;;;;;;;5061128;28;46121;-81
2024/02/08 01:50:32;;;;;;;;;5.00;5.00;;;;;;;;5061736;28;45472;-79
2024/02/08 01:52:59;;;;;;;;;3.00;3.00;;;;;;;;5062379;28;45315;-80
2024/02/08 01:55:25;;;;;;;;;3.00;3.00;;;;;;;;5062173;28;45377;-78
2024/02/08 01:57:50;;;;;;;;;6.33;5.00;;;;;;;;5072521;28;45501;-79
2024/02/08 02:00:16;;;;;;;;;4.00;4.00;;;;;;;;5082565;27;45358;-79
2024/02/08 02:02:42;;;;;;;;;4.00;3.00;;;;;;;;5082498;27;45340;-80
2024/02/08 02:05:17;;;;;;;;;4.00;4.00;;;;;;;;5082346;28;45333;-79
2024/02/08 02:07:42;;;;;;;;;3.00;2.33;;;;;;;;5082297;27;45471;-81
2024/02/08 02:10:08;;;;;;;;;3.00;3.00;;;;;;;;5082350;28;45251;-79
2024/02/08 02:12:33;;;;;;;;;4.67;4.00;;;;;;;;5082366;28;45450;-79
2024/02/08 02:14:58;;;;;;;;;6.33;4.67;;;;;;;;5082253;28;45300;-79
2024/02/08 02:17:26;;;;;;;;;2.33;2.33;;;;;;;;5082308;27;45329;-79
2024/02/08 02:20:05;;;;;;;;;2.67;2.67;;;;;;;;5081659;27;46353;-78
2024/02/08 02:22:33;;;;;;;;;4.33;4.00;;;;;;;;5082023;27;45271;-78
2024/02/08 02:24:59;;;;;;;;;4.67;3.33;;;;;;;;5082178;27;45251;-79
2024/02/08 02:27:24;;;;;;;;;4.00;4.00;;;;;;;;5081912;28;45537;-79
2024/02/08 02:29:53;;;;;;;;;3.00;2.00;;;;;;;;5082181;27;45416;-79
2024/02/08 02:32:21;;;;;;;;;3.67;3.00;;;;;;;;5081542;28;45325;-79
2024/02/08 02:34:46;;;;;;;;;3.00;3.00;;;;;;;;5081739;27;45338;-79
2024/02/08 02:37:12;;;;;;;;;3.00;2.00;;;;;;;;5080561;28;46814;-79
2024/02/08 02:39:37;;;;;;;;;2.00;2.00;;;;;;;;5081010;27;46306;-80
2024/02/08 02:42:02;;;;;;;;;3.00;3.00;;;;;;;;5080099;28;45412;-80
2024/02/08 02:44:28;;;;;;;;;2.67;2.67;;;;;;;;5082079;27;45312;-79
2024/02/08 02:46:54;;;;;;;;;3.33;3.33;;;;;;;;5081640;27;45464;-79
2024/02/08 02:49:21;;;;;;;;;4.00;4.00;;;;;;;;5081425;28;46380;-79
2024/02/08 02:51:48;;;;;;;;;2.00;2.00;;;;;;;;5081388;28;45428;-79
2024/02/08 02:54:16;;;;;;;;;2.00;2.00;;;;;;;;5064501;28;45648;-79
2024/02/08 02:56:47;;;;;;;;;3.00;3.00;;;;;;;;5063731;28;45559;-79
2024/02/08 02:59:16;;;;;;;;;2.00;2.00;;;;;;;;5081773;27;45365;-79
2024/02/08 03:01:42;;;;;;;;;3.00;2.00;;;;;;;;5080359;28;45306;-79
2024/02/08 03:04:07;;;;;;;;;2.00;2.00;;;;;;;;5080845;27;45404;-79
2024/02/08 03:06:37;;;;;;;;;3.67;3.67;;;;;;;;5081459;27;45346;-80
2024/02/08 03:09:05;;;;;;;;;2.67;1.33;;;;;;;;5081136;28;45283;-78
2024/02/08 03:11:32;;;;;;;;;2.00;2.00;;;;;;;;5081293;28;45176;-79
2024/02/08 03:13:57;;;;;;;;;2.00;2.00;;;;;;;;5081414;28;45421;-79
2024/02/08 03:16:28;;;;;;;;;3.67;3.00;;;;;;;;5081171;27;45612;-79
2024/02/08 03:18:53;;;;;;;;;5.00;5.00;;;;;;;;5079875;28;47966;-79
2024/02/08 03:21:21;;;;;;;;;2.00;2.00;;;;;;;;5079683;28;45360;-78
2024/02/08 03:23:47;;;;;;;;;4.33;4.33;;;;;;;;5080165;28;45228;-79
2024/02/08 03:26:18;;;;;;;;;3.67;3.67;;;;;;;;5080943;27;45606;-80
2024/02/08 03:28:43;;;;;;;;;3.67;3.67;;;;;;;;5081217;27;46223;-79
2024/02/08 03:31:09;;;;;;;;;4.67;4.67;;;;;;;;5080738;27;45362;-78
2024/02/08 03:33:34;;;;;;;;;4.00;4.00;;;;;;;;5081201;27;45297;-78
2024/02/08 03:35:59;;;;;;;;;4.00;3.67;;;;;;;;5068217;27;45338;-79
2024/02/08 03:38:25;;;;;;;;;6.00;4.33;;;;;;;;5060497;28;46403;-79
2024/02/08 03:40:50;;;;;;;;;2.33;2.33;;;;;;;;5060413;28;45227;-80
2024/02/08 03:43:15;;;;;;;;;2.00;2.00;;;;;;;;5060673;28;45536;-78
2024/02/08 03:45:41;;;;;;;;;2.00;2.00;;;;;;;;5059040;28;47301;-79
2024/02/08 03:48:10;;;;;;;;;2.33;2.33;;;;;;;;5059150;28;47205;-80
2024/02/08 03:50:36;;;;;;;;;1.33;1.33;;;;;;;;5060061;28;45418;-80
2024/02/08 03:53:01;;;;;;;;;2.00;2.00;;;;;;;;5058637;28;45390;-79
2024/02/08 03:55:26;;;;;;;;;3.00;3.00;;;;;;;;5059027;28;46124;-79
2024/02/08 03:58:00;;;;;;;;;1.00;1.00;;;;;;;;5070740;28;47336;-80
2024/02/08 04:00:28;;;;;;;;;3.00;3.00;;;;;;;;5080860;27;45449;-79
2024/02/08 04:02:57;;;;;;;;;1.33;1.33;;;;;;;;5079311;28;45368;-79
2024/02/08 04:05:36;;;;;;;;;1.00;1.00;;;;;;;;5080115;27;45458;-77
2024/02/08 04:08:22;;;;;;;;;0.00;0.00;;;;;;;;5079532;28;47659;-79
2024/02/08 04:54:11;;;;;;;;;3.00;3.00;;;;;;;;5060183;28;45283;-79
2024/02/08 04:56:36;;;;;;;;;3.00;3.00;;;;;;;;5061856;28;45302;-80
2024/02/08 04:59:05;;;;;;;;;4.67;4.67;;;;;;;;5074252;28;46370;-79
2024/02/08 05:01:30;;;;;;;;;3.00;2.33;;;;;;;;5060239;28;46022;-81
2024/02/08 05:03:57;;;;;;;;;4.67;4.00;;;;;;;;5058265;28;45465;-79
2024/02/08 05:06:25;;;;;;;;;3.00;3.00;;;;;;;;5059591;28;45417;-82
2024/02/08 05:08:57;;;;;;;;;0.67;0.67;;;;;;;;5058179;28;45275;-79
2024/02/08 05:11:23;;;;;;;;;2.00;2.00;;;;;;;;5060091;28;46024;-79
2024/02/08 05:13:50;;;;;;;;;0.00;0.00;;;;;;;;5060029;28;45391;-79
2024/02/08 05:16:15;;;;;;;;;0.67;0.67;;;;;;;;5059851;28;45315;-79
2024/02/08 05:18:44;;;;;;;;;0.00;0.00;;;;;;;;5059692;28;45559;-80
2024/02/08 05:21:10;;;;;;;;;1.00;1.00;;;;;;;;5061564;28;46383;-83
2024/02/08 05:23:38;;;;;;;;;0.00;0.00;;;;;;;;5063239;28;45377;-83
2024/02/08 05:26:05;;;;;;;;;1.00;1.00;;;;;;;;5062827;28;45338;-80
2024/02/08 05:28:30;;;;;;;;;1.00;1.00;;;;;;;;5061158;28;45236;-79
2024/02/08 05:30:56;;;;;;;;;0.00;0.00;;;;;;;;5062031;28;45354;-83
2024/02/08 05:33:23;;;;;;;;;0.00;0.00;;;;;;;;5061465;28;45127;-86
2024/02/08 05:35:56;;;;;;;;;0.00;0.00;;;;;;;;5058675;28;45317;-79
2024/02/08 05:38:21;;;;;;;;;0.00;0.00;;;;;;;;5059834;28;45332;-78
2024/02/08 05:40:47;;;;;;;;;0.00;0.00;;;;;;;;5044195;28;45268;-79
2024/02/08 05:43:12;;;;;;;;;0.00;0.00;;;;;;;;5039646;28;45314;-79
2024/02/08 05:45:37;;;;;;;;;0.00;0.00;;;;;;;;5037160;28;45378;-78
2024/02/08 05:48:10;;;;;;;;;0.00;0.00;;;;;;;;5038093;28;45495;-79
2024/02/08 05:50:35;;;;;;;;;0.00;0.00;;;;;;;;5055743;28;48141;-80
2024/02/08 05:53:06;;;;;;;;;0.00;0.00;;;;;;;;5058445;28;45454;-80
2024/02/08 05:55:34;;;;;;;;;0.00;0.00;;;;;;;;5058748;28;45612;-81
2024/02/08 05:57:59;;;;;;;;;0.00;0.00;;;;;;;;5071123;28;45449;-79
2024/02/08 06:00:45;;;;;;;;;0.00;0.00;;;;;;;;5066031;28;48031;-79
2024/02/08 06:03:17;;;;;;;;;0.25;0.25;;;;;;;;5057181;28;45644;-79
2024/02/08 06:05:49;;;;;;;;;1.00;1.00;;;;;;;;5057221;28;45484;-81
2024/02/08 06:08:25;;;;;;;;;0.00;0.00;;;;;;;;5057333;28;46170;-79
2024/02/08 06:10:52;;;;;;;;;1.00;1.00;;;;;;;;5058511;28;45302;-79
2024/02/08 06:13:21;;;;;;;;;4.00;1.00;;;;;;;;5059442;28;45347;-79
2024/02/08 06:15:50;;;;;;;;;2.00;1.00;;;;;;;;5061556;28;45303;-78
2024/02/08 06:18:38;;;;;;;;;2.00;2.00;;;;;;;;5062133;28;45368;-78
2024/02/08 06:21:12;;;;;;;;;0.00;0.00;;;;;;;;5061230;28;46104;-79
2024/02/08 06:23:43;;;;;;;;;0.00;0.00;;;;;;;;5062164;28;45426;-79
2024/02/08 06:28:46;;;;;;;;;1.67;0.33;;;;;;;;5061258;28;45348;-78
2024/02/08 06:31:14;;;;;;;;;1.33;0.33;;;;;;;;5059578;28;47218;-78
2024/02/08 06:34:09;;;;;;;;;0.00;0.00;;;;;;;;5052193;28;45492;-78
2024/02/08 06:36:30;;;;;;;;;2.00;1.00;;;;;;;;5049728;28;45347;-78
2024/02/08 06:38:55;;;;;;;;;2.67;1.67;;;;;;;;5061702;28;45341;-79
2024/02/08 06:41:52;;;;;;;;;1.67;1.67;;;;;;;;5062631;28;45447;-79
2024/02/08 06:47:54;;;;;;;;;1.00;1.00;;;;;;;;5062934;28;45449;-79
2024/02/08 07:39:30;;;;;;;;;12.00;10.33;;;;;;;;5060289;28;45387;-79
2024/02/08 07:41:55;;;;;;;;;14.33;12.33;;;;;;;;5060990;28;45350;-79
2024/02/08 07:44:22;;;;;;;;;13.67;10.67;;;;;;;;5060416;28;45568;-78
2024/02/08 07:46:48;;;;;;;;;16.00;10.00;;;;;;;;5060008;28;46002;-78
2024/02/08 07:49:15;;;;;;;;;14.33;12.67;;;;;;;;5059545;28;45811;-78
2024/02/08 07:51:50;;;;;;;;;12.33;8.33;;;;;;;;5060667;28;45485;-78
2024/02/08 07:54:20;;;;;;;;;11.67;10.33;;;;;;;;5060471;28;45285;-78
2024/02/08 07:56:49;;;;;;;;;13.67;11.67;;;;;;;;5062035;28;48143;-78
2024/02/08 07:59:26;;;;;;;;;12.33;8.33;;;;;;;;5079381;28;45966;-78
2024/02/08 08:01:53;;;;;;;;;12.67;9.67;;;;;;;;5079300;28;45389;-79
2024/02/08 08:04:41;;;;;;;;;11.00;9.67;;;;;;;;5077886;27;45336;-79
2024/02/08 08:07:09;;;;;;;;;14.00;9.67;;;;;;;;5058346;28;46237;-78
2024/02/08 08:09:36;;;;;;;;;14.00;13.67;;;;;;;;5060142;28;45335;-79
2024/02/08 08:12:04;;;;;;;;;11.67;10.00;;;;;;;;5058561;28;45358;-79
2024/02/08 08:19:46;;;;;;;;;15.00;12.33;;;;;;;;5059785;28;45286;-78
2024/02/08 08:25:11;;;;;;;;;14.00;11.00;;;;;;;;5038335;28;45400;-78
2024/02/08 08:27:50;;;;;;;;;13.33;12.33;;;;;;;;5059999;28;45271;-79
2024/02/08 08:30:28;;;;;;;;;12.67;9.33;;;;;;;;5059903;28;45340;-78
2024/02/08 08:33:08;;;;;;;;;14.00;13.33;;;;;;;;5059651;28;45405;-78
2024/02/08 08:47:03;;;;;;;;;10.00;10.00;;;;;;;;5050445;28;45281;-79
2024/02/08 08:49:29;;;;;;;;;13.33;10.33;;;;;;;;5058774;28;45845;-76
2024/02/08 08:51:58;;;;;;;;;11.00;9.00;;;;;;;;5059610;28;45351;-78
2024/02/08 08:54:29;;;;;;;;;14.00;10.00;;;;;;;;5059609;28;45402;-77
2024/02/08 08:56:56;;;;;;;;;10.00;9.00;;;;;;;;5062266;28;46222;-79
2024/02/08 08:59:22;;;;;;;;;13.33;11.00;;;;;;;;5073023;27;45409;-76
2024/02/08 09:01:48;;;;;;;;;10.00;8.33;;;;;;;;5058839;28;45364;-76
2024/02/08 09:04:25;;;;;;;;;12.67;10.67;;;;;;;;5058914;28;45350;-80
2024/02/08 09:06:51;;;;;;;;;12.00;9.33;;;;;;;;5047765;28;46104;-79
2024/02/08 09:09:28;;;;;;;;;16.33;14.33;;;;;;;;5056320;28;47352;-79
2024/02/08 09:11:59;;;;;;;;;12.33;11.67;;;;;;;;5056330;28;45480;-79
2024/02/08 09:14:30;;;;;;;;;11.00;10.67;;;;;;;;5059221;28;45298;-78
2024/02/08 09:16:57;;;;;;;;;15.67;10.00;;;;;;;;5059852;28;45208;-80
2024/02/08 09:19:27;;;;;;;;;15.67;13.00;;;;;;;;5059046;28;45382;-79
2024/02/08 09:21:53;;;;;;;;;13.33;11.67;;;;;;;;5058061;28;45406;-79
2024/02/08 09:24:18;;;;;;;;;14.33;12.33;;;;;;;;5057209;28;45494;-79
2024/02/08 09:26:52;;;;;;;;;15.33;12.33;;;;;;;;5059291;28;45458;-78
2024/02/08 09:29:23;;;;;;;;;13.00;11.67;;;;;;;;5059081;28;45238;-79
2024/02/08 09:31:49;;;;;;;;;13.00;10.33;;;;;;;;5058685;28;45397;-79
2024/02/08 09:34:15;;;;;;;;;11.33;10.67;;;;;;;;5057765;28;45473;-82
2024/02/08 09:36:44;;;;;;;;;10.00;8.00;;;;;;;;5053037;28;45878;-80
2024/02/08 09:39:15;;;;;;;;;12.33;10.67;;;;;;;;5051325;28;46008;-78
2024/02/08 09:41:44;;;;;;;;;11.00;11.00;;;;;;;;5055596;28;45300;-79
2024/02/08 09:44:11;;;;;;;;;17.67;14.67;;;;;;;;5056891;28;45306;-80
2024/02/08 09:49:21;;;;;;;;;15.33;11.33;;;;;;;;5062043;28;45390;-79
2024/02/08 09:51:53;;;;;;;;;12.00;11.67;;;;;;;;5067467;28;45712;-80
2024/02/08 09:54:29;;;;;;;;;12.33;10.33;;;;;;;;5060230;28;45508;-80
2024/02/08 09:57:22;;;;;;;;;10.33;9.67;;;;;;;;5060158;28;47217;-80
2024/02/08 10:00:02;;;;;;;;;12.33;9.67;;;;;;;;5082326;28;45219;-80
2024/02/08 10:02:44;;;;;;;;;9.67;8.33;;;;;;;;5044889;28;45614;-79
2024/02/08 10:08:09;;;;;;;;;11.33;11.00;;;;;;;;5024094;28;45498;-82
2024/02/08 10:10:56;;;;;;;;;15.00;11.00;;;;;;;;5061961;28;47002;-80
2024/02/08 10:13:30;;;;;;;;;11.33;8.67;;;;;;;;5051072;28;45351;-79
2024/02/08 10:15:58;;;;;;;;;11.67;9.33;;;;;;;;5062623;28;45269;-80
2024/02/08 10:18:33;;;;;;;;;8.67;7.33;;;;;;;;5061815;28;45452;-79
2024/02/08 10:21:12;;;;;;;;;10.00;9.33;;;;;;;;5059715;28;47703;-81
2024/02/08 10:23:48;;;;;;;;;9.00;8.00;;;;;;;;5060157;28;46103;-81
2024/02/08 10:26:19;;;;;;;;;9.00;9.00;;;;;;;;5060535;28;45468;-80
2024/02/08 10:28:53;;;;;;;;;13.00;10.67;;;;;;;;5061826;28;45551;-80
2024/02/08 10:31:23;;;;;;;;;12.00;10.00;;;;;;;;5062101;28;45331;-80
2024/02/08 10:33:57;;;;;;;;;14.33;12.00;;;;;;;;5062030;28;45248;-80
2024/02/08 10:36:30;;;;;;;;;15.33;14.00;;;;;;;;5062005;28;45358;-81
2024/02/08 10:39:03;;;;;;;;;12.00;11.00;;;;;;;;5061442;28;45420;-80
2024/02/08 10:41:37;;;;;;;;;17.00;16.67;;;;;;;;5060251;28;48518;-80
2024/02/08 10:44:05;;;;;;;;;13.67;12.33;;;;;;;;5061224;28;45445;-81
2024/02/08 10:46:33;;;;;;;;;12.67;11.33;;;;;;;;5058874;28;45283;-79
2024/02/08 10:49:08;;;;;;;;;10.67;10.00;;;;;;;;5057918;28;45534;-81
2024/02/08 10:51:35;;;;;;;;;18.00;15.00;;;;;;;;5056230;28;48300;-79
2024/02/08 10:54:05;;;;;;;;;19.00;18.00;;;;;;;;5057177;28;45509;-78
2024/02/08 10:56:40;;;;;;;;;13.00;12.00;;;;;;;;5058667;28;45327;-79
2024/02/08 11:01:33;;;;;;;;;15.00;14.00;;;;;;;;5059974;28;46050;-79
2024/02/08 11:04:01;;;;;;;;;14.67;13.33;;;;;;;;5059060;28;45947;-80
2024/02/08 11:06:28;;;;;;;;;18.00;15.33;;;;;;;;5056789;28;45452;-80
2024/02/08 11:09:09;;;;;;;;;13.67;13.00;;;;;;;;5060789;28;45391;-77
2024/02/08 11:11:37;;;;;;;;;12.33;12.33;;;;;;;;5058705;28;47409;-80
2024/02/08 11:14:08;;;;;;;;;15.67;15.00;;;;;;;;5059022;28;45284;-78
2024/02/08 11:16:35;;;;;;;;;25.67;24.33;;;;;;;;5060200;28;45438;-78
2024/02/08 11:19:04;;;;;;;;;11.67;11.00;;;;;;;;5059122;28;46614;-78
2024/02/08 11:21:43;;;;;;;;;11.67;11.00;;;;;;;;5061263;28;45291;-78
2024/02/08 11:24:08;;;;;;;;;15.00;14.00;;;;;;;;5060765;28;45497;-80
2024/02/08 11:26:34;;;;;;;;;15.67;14.00;;;;;;;;5060346;28;45354;-78
2024/02/08 11:29:18;;;;;;;;;11.00;11.00;;;;;;;;5058335;28;46201;-80
2024/02/08 11:31:46;;;;;;;;;11.00;9.33;;;;;;;;5059875;28;45394;-77
2024/02/08 11:34:15;;;;;;;;;11.00;9.67;;;;;;;;5060031;28;45305;-78
2024/02/08 11:36:43;;;;;;;;;20.67;15.67;;;;;;;;5059442;28;45353;-78
2024/02/08 11:39:27;;;;;;;;;23.33;21.00;;;;;;;;5060623;28;45363;-78
2024/02/08 11:42:00;;;;;;;;;12.67;11.00;;;;;;;;5040657;28;45510;-77
2024/02/08 11:44:35;;;;;;;;;11.67;9.00;;;;;;;;5040665;28;45366;-79
2024/02/08 11:47:17;;;;;;;;;8.33;8.00;;;;;;;;5048063;28;45366;-79
2024/02/08 11:49:49;;;;;;;;;11.33;10.00;;;;;;;;5045797;28;45578;-79
2024/02/08 11:52:19;;;;;;;;;12.33;12.00;;;;;;;;5051055;28;47311;-79
2024/02/08 11:54:44;;;;;;;;;10.67;10.67;;;;;;;;5060305;28;45509;-79
2024/02/08 11:57:11;;;;;;;;;10.67;8.00;;;;;;;;5068176;28;45345;-77
2024/02/08 11:59:38;;;;;;;;;9.67;8.67;;;;;;;;5057700;27;45564;-78
2024/02/08 12:02:08;;;;;;;;;17.33;12.33;;;;;;;;5055509;28;48337;-78
2024/02/08 12:04:36;;;;;;;;;10.67;10.33;;;;;;;;5041491;28;45352;-78
2024/02/08 12:07:04;;;;;;;;;13.00;9.67;;;;;;;;5053179;28;45393;-78
2024/02/08 12:09:31;;;;;;;;;14.33;13.00;;;;;;;;5058716;28;45316;-78
2024/02/08 12:11:57;;;;;;;;;8.33;6.00;;;;;;;;5061985;28;45277;-78
2024/02/08 12:14:24;;;;;;;;;10.00;9.00;;;;;;;;5061676;28;45293;-77
2024/02/08 12:16:57;;;;;;;;;14.00;10.33;;;;;;;;5059702;28;45314;-79
2024/02/08 12:19:22;;;;;;;;;15.00;11.33;;;;;;;;5059339;28;46257;-78
2024/02/08 12:21:56;;;;;;;;;8.33;6.67;;;;;;;;5059246;28;47045;-79
2024/02/08 12:24:23;;;;;;;;;12.00;10.00;;;;;;;;5059051;28;45444;-78
2024/02/08 12:26:53;;;;;;;;;4.00;3.00;;;;;;;;5059278;28;45561;-76
2024/02/08 12:29:19;;;;;;;;;11.00;10.00;;;;;;;;5059610;28;46537;-79
2024/02/08 12:31:48;;;;;;;;;10.67;9.33;;;;;;;;5060243;28;46185;-76
2024/02/08 12:34:15;;;;;;;;;9.67;6.67;;;;;;;;5060712;28;45356;-78
2024/02/08 12:36:45;;;;;;;;;11.67;10.67;;;;;;;;5058150;28;45513;-76
2024/02/08 12:39:17;;;;;;;;;10.33;10.33;;;;;;;;5057216;28;47080;-78
2024/02/08 12:41:43;;;;;;;;;11.00;11.00;;;;;;;;5049177;28;45446;-77
2024/02/08 12:44:09;;;;;;;;;10.00;9.00;;;;;;;;5056808;28;45355;-76
2024/02/08 12:46:34;;;;;;;;;15.50;12.50;;;;;;;;5048539;28;45305;-77
2024/02/08 12:48:59;;;;;;;;;12.00;10.33;;;;;;;;5055059;28;45268;-77
2024/02/08 12:51:25;;;;;;;;;11.00;10.00;;;;;;;;5055854;28;45367;-76
2024/02/08 12:53:57;;;;;;;;;14.00;12.33;;;;;;;;5058715;28;45775;-77
2024/02/08 12:56:22;;;;;;;;;13.33;11.33;;;;;;;;5058747;28;45465;-77
2024/02/08 12:58:59;;;;;;;;;11.33;10.67;;;;;;;;5061144;28;45334;-77
2024/02/08 13:01:24;;;;;;;;;9.00;8.33;;;;;;;;5059582;28;45717;-76
2024/02/08 13:03:54;;;;;;;;;12.33;10.67;;;;;;;;5059134;28;45342;-77
2024/02/08 13:06:19;;;;;;;;;4.00;3.00;;;;;;;;5057922;28;45448;-77
2024/02/08 13:08:45;;;;;;;;;10.33;9.00;;;;;;;;5058718;28;45406;-78
2024/02/08 13:11:10;;;;;;;;;10.67;10.00;;;;;;;;5059216;28;46005;-78
2024/02/08 13:13:35;;;;;;;;;11.67;11.00;;;;;;;;5059236;28;45442;-77
2024/02/08 13:16:08;;;;;;;;;14.00;11.00;;;;;;;;5058271;28;45299;-77
2024/02/08 13:18:38;;;;;;;;;8.00;7.67;;;;;;;;5059138;28;45271;-77
2024/02/08 13:21:03;;;;;;;;;14.00;12.00;;;;;;;;5058178;28;48193;-78
2024/02/08 13:23:29;;;;;;;;;11.00;9.33;;;;;;;;5058729;28;45306;-77
2024/02/08 13:25:55;;;;;;;;;9.33;8.67;;;;;;;;5058399;28;45468;-75
2024/02/08 13:28:24;;;;;;;;;10.00;7.67;;;;;;;;5057882;28;47220;-77
2024/02/08 13:30:58;;;;;;;;;7.00;6.00;;;;;;;;5058174;28;46157;-77
2024/02/08 13:33:24;;;;;;;;;11.33;11.00;;;;;;;;5058396;28;45314;-79
2024/02/08 13:35:52;;;;;;;;;10.00;9.33;;;;;;;;5058593;28;45401;-76
2024/02/08 13:38:22;;;;;;;;;10.00;8.33;;;;;;;;5055747;28;47253;-77
2024/02/08 13:40:52;;;;;;;;;12.00;11.00;;;;;;;;5057920;28;45350;-77
2024/02/08 13:43:18;;;;;;;;;7.00;6.33;;;;;;;;5054119;28;45529;-78
2024/02/08 13:45:43;;;;;;;;;12.67;11.33;;;;;;;;5055943;28;45565;-78
2024/02/08 13:48:15;;;;;;;;;9.00;9.00;;;;;;;;5057811;28;45379;-77
2024/02/08 13:50:44;;;;;;;;;10.33;10.00;;;;;;;;5056530;28;47255;-78
2024/02/08 13:53:14;;;;;;;;;13.33;11.33;;;;;;;;5056212;28;45385;-77
2024/02/08 13:55:45;;;;;;;;;14.00;11.33;;;;;;;;5054976;28;45475;-77
2024/02/08 13:58:10;;;;;;;;;13.33;11.00;;;;;;;;5066607;28;47335;-79
2024/02/08 14:00:36;;;;;;;;;9.33;9.00;;;;;;;;5056106;28;46197;-78
2024/02/08 14:03:03;;;;;;;;;12.67;10.00;;;;;;;;5058686;28;45276;-77
2024/02/08 14:05:36;;;;;;;;;16.33;13.33;;;;;;;;5057800;28;45310;-77
2024/02/08 14:08:01;;;;;;;;;13.00;11.00;;;;;;;;5055782;28;45405;-78
2024/02/08 14:10:33;;;;;;;;;12.00;11.00;;;;;;;;5055359;28;47979;-78
2024/02/08 14:13:09;;;;;;;;;13.33;13.00;;;;;;;;5053108;28;45396;-78
2024/02/08 14:15:38;;;;;;;;;10.67;10.33;;;;;;;;5043955;28;45389;-78
2024/02/08 14:18:22;;;;;;;;;13.00;12.00;;;;;;;;5055775;28;45430;-78
2024/02/08 14:20:52;;;;;;;;;14.00;12.67;;;;;;;;5057435;28;46084;-76
2024/02/08 14:23:29;;;;;;;;;13.00;13.00;;;;;;;;5058168;28;45480;-77
2024/02/08 14:28:32;;;;;;;;;15.00;12.33;;;;;;;;5067032;28;45324;-78
2024/02/08 14:31:00;;;;;;;;;14.00;13.33;;;;;;;;5077514;28;46239;-77
2024/02/08 14:33:27;;;;;;;;;14.33;11.67;;;;;;;;5078012;27;45457;-76
2024/02/08 14:35:54;;;;;;;;;14.33;11.00;;;;;;;;5079730;27;45425;-77
2024/02/08 14:38:20;;;;;;;;;15.67;11.67;;;;;;;;5080678;28;46374;-79
2024/02/08 14:40:45;;;;;;;;;12.00;9.67;;;;;;;;5080424;28;46348;-77
2024/02/08 14:43:10;;;;;;;;;17.33;13.00;;;;;;;;5080624;28;45839;-78
2024/02/08 14:45:35;;;;;;;;;9.67;9.67;;;;;;;;5080991;28;45318;-77
2024/02/08 14:48:10;;;;;;;;;11.33;9.67;;;;;;;;5082230;27;45335;-78
2024/02/08 14:50:53;;;;;;;;;14.00;9.33;;;;;;;;5082898;27;46175;-79
2024/02/08 14:53:22;;;;;;;;;5.33;5.33;;;;;;;;5083078;27;45369;-79
2024/02/08 14:55:51;;;;;;;;;9.67;9.67;;;;;;;;5083579;27;45362;-79
2024/02/08 14:58:40;;;;;;;;;14.00;11.67;;;;;;;;5067270;27;45413;-79
2024/02/08 15:01:09;;;;;;;;;14.00;11.67;;;;;;;;5061832;28;46400;-78
2024/02/08 15:03:38;;;;;;;;;11.00;9.67;;;;;;;;5061802;28;45331;-78
2024/02/08 15:06:15;;;;;;;;;12.67;11.33;;;;;;;;5061996;28;45378;-79
2024/02/08 15:08:46;;;;;;;;;9.67;9.33;;;;;;;;5061217;28;45393;-79
2024/02/08 15:11:38;;;;;;;;;14.33;14.00;;;;;;;;5061102;28;46579;-79
2024/02/08 15:14:03;;;;;;;;;13.00;12.00;;;;;;;;5060964;28;45277;-78
2024/02/08 15:16:31;;;;;;;;;15.00;11.33;;;;;;;;5059643;28;45351;-78
2024/02/08 15:18:57;;;;;;;;;9.67;9.67;;;;;;;;5060742;28;45346;-77
2024/02/08 15:21:34;;;;;;;;;13.67;11.33;;;;;;;;5061093;28;46078;-77
2024/02/08 15:26:38;;;;;;;;;16.00;14.33;;;;;;;;5061049;28;45314;-78
2024/02/08 15:29:09;;;;;;;;;15.00;11.33;;;;;;;;5059358;28;47188;-78
2024/02/08 15:31:56;;;;;;;;;13.33;13.33;;;;;;;;5060630;28;45349;-79
2024/02/08 15:34:27;;;;;;;;;15.33;13.00;;;;;;;;5058555;28;45363;-78
2024/02/08 15:42:09;;;;;;;;;13.67;12.67;;;;;;;;5060669;28;46225;-79
2024/02/08 15:44:34;;;;;;;;;12.33;11.33;;;;;;;;5060936;28;45331;-79
2024/02/08 15:47:11;;;;;;;;;13.67;12.33;;;;;;;;5058894;28;45354;-79
2024/02/08 15:49:37;;;;;;;;;15.67;15.00;;;;;;;;5058993;28;47356;-79
2024/02/08 15:52:04;;;;;;;;;18.33;14.00;;;;;;;;5058902;28;47184;-79
2024/02/08 15:54:38;;;;;;;;;14.00;11.00;;;;;;;;5059280;28;45854;-79
2024/02/08 15:57:07;;;;;;;;;15.00;14.00;;;;;;;;5066024;28;45405;-79
2024/02/08 15:59:34;;;;;;;;;15.33;12.00;;;;;;;;5080816;27;45341;-79
2024/02/08 16:02:04;;;;;;;;;5.00;4.00;;;;;;;;5080721;27;46034;-79
2024/02/08 16:05:42;;;;;;;;;16.00;14.67;;;;;;;;5080374;27;45406;-79
2024/02/08 16:07:32;;;;;;;;;13.00;13.00;;;;;;;;5071561;28;45303;-78
2024/02/08 16:09:57;;;;;;;;;12.00;11.67;;;;;;;;5080759;27;45408;-78
2024/02/08 16:12:23;;;;;;;;;13.00;13.00;;;;;;;;5080329;27;46151;-79
2024/02/08 16:14:50;;;;;;;;;11.00;10.33;;;;;;;;5080704;27;45353;-79
2024/02/08 16:20:36;;;;;;;;;13.00;12.67;;;;;;;;5079947;28;45321;-79
2024/02/08 16:22:55;;;;;;;;;11.67;7.33;;;;;;;;5078013;28;46004;-78
2024/02/08 16:28:16;;;;;;;;;15.67;13.67;;;;;;;;5080475;28;45341;-79
2024/02/08 16:30:51;;;;;;;;;20.00;16.33;;;;;;;;5080364;27;45289;-79
2024/02/08 16:33:19;;;;;;;;;14.00;12.33;;;;;;;;5080184;27;45240;-79
2024/02/08 16:35:58;;;;;;;;;16.67;15.00;;;;;;;;5058842;28;45437;-79
2024/02/08 16:38:29;;;;;;;;;16.00;15.67;;;;;;;;5039735;28;45327;-79
2024/02/08 16:40:56;;;;;;;;;15.67;15.00;;;;;;;;5038044;28;46851;-79
2024/02/08 16:43:28;;;;;;;;;17.67;15.00;;;;;;;;5038310;28;46284;-79
2024/02/08 16:45:58;;;;;;;;;19.33;17.67;;;;;;;;5039584;28;45244;-79
2024/02/08 16:48:24;;;;;;;;;17.00;16.00;;;;;;;;5039546;28;45323;-79
2024/02/08 16:50:49;;;;;;;;;18.00;15.67;;;;;;;;5039370;28;45474;-78
2024/02/08 16:53:19;;;;;;;;;16.33;13.67;;;;;;;;5038138;28;48092;-78
2024/02/08 16:55:48;;;;;;;;;14.67;14.00;;;;;;;;5039504;28;45287;-78
2024/02/08 16:58:17;;;;;;;;;17.00;14.00;;;;;;;;5067918;28;45494;-77
2024/02/08 17:00:48;;;;;;;;;19.33;17.00;;;;;;;;5079114;27;45491;-78
2024/02/08 17:06:11;;;;;;;;;17.67;15.67;;;;;;;;5079646;28;45373;-78
2024/02/08 17:11:31;;;;;;;;;18.33;16.00;;;;;;;;5079527;28;45230;-79